Time;durP1;ratioP1;P1;durP2;ratioP2;P2;SDS_P1;SDS_P2;PMS_P1;PMS_P2;Temp;Humidity;BMP_temperature;BMP_pressure;BME280_temperature;BME280_humidity;BME280_pressure;Samples;Min_cycle;Max_cycle;Signal;HPM_P1;HPM_P2
2022/10/15 00:00:49;;;;;;;30.77;18.23;;;16.40;99.90;;;;;;5054817;28;20163;-78
2022/10/15 00:03:15;;;;;;;26.27;18.45;;;16.40;99.90;;;;;;5054321;28;20167;-77
2022/10/15 00:05:41;;;;;;;26.17;17.95;;;16.30;99.90;;;;;;5053001;28;20238;-78
2022/10/15 00:08:08;;;;;;;25.98;18.52;;;16.40;99.90;;;;;;5053285;28;20240;-84
2022/10/15 00:10:34;;;;;;;22.05;18.10;;;16.30;99.90;;;;;;5053334;28;20645;-78
2022/10/15 00:13:00;;;;;;;21.23;17.30;;;16.40;99.90;;;;;;5052654;28;20191;-78
2022/10/15 00:15:26;;;;;;;25.35;17.25;;;16.40;99.90;;;;;;5052951;28;20257;-78
2022/10/15 00:17:51;;;;;;;23.10;16.52;;;16.30;99.90;;;;;;5052645;28;20252;-79
2022/10/15 00:20:17;;;;;;;19.98;16.70;;;16.20;99.90;;;;;;5053202;28;20253;-79
2022/10/15 00:22:43;;;;;;;23.30;16.70;;;16.20;99.90;;;;;;5053017;28;20637;-79
2022/10/15 00:25:09;;;;;;;18.58;16.35;;;16.40;99.90;;;;;;5052574;28;20536;-79
2022/10/15 00:27:35;;;;;;;27.73;18.27;;;16.40;99.90;;;;;;5052736;28;20253;-78
2022/10/15 00:30:02;;;;;;;21.52;17.08;;;16.60;99.90;;;;;;5052988;28;20168;-78
2022/10/15 00:32:29;;;;;;;21.98;16.90;;;16.50;99.90;;;;;;5051188;28;20661;-78
2022/10/15 00:34:55;;;;;;;24.65;17.38;;;16.40;99.90;;;;;;5052542;28;20159;-79
2022/10/15 00:37:21;;;;;;;24.92;17.23;;;16.40;99.90;;;;;;5052587;28;20202;-78
2022/10/15 00:39:47;;;;;;;21.73;17.40;;;16.50;99.90;;;;;;5053000;28;20196;-78
2022/10/15 00:42:12;;;;;;;17.90;15.90;;;16.30;99.90;;;;;;5052575;28;20175;-78
2022/10/15 00:44:56;;;;;;;18.95;15.95;;;16.10;99.90;;;;;;5052609;28;21035;-78
2022/10/15 00:47:28;;;;;;;18.58;15.80;;;16.10;99.90;;;;;;5052247;28;20250;-78
2022/10/15 00:49:59;;;;;;;19.17;16.40;;;16.10;99.90;;;;;;5052542;28;20525;-78
2022/10/15 00:52:33;;;;;;;18.02;16.10;;;16.20;99.90;;;;;;5051073;28;20170;-80
2022/10/15 00:55:05;;;;;;;20.45;15.98;;;16.30;99.90;;;;;;5052319;28;20159;-77
2022/10/15 00:57:32;;;;;;;25.95;17.13;;;16.30;99.90;;;;;;5052278;28;20195;-79
2022/10/15 01:00:03;;;;;;;20.30;16.88;;;16.30;99.90;;;;;;5052635;28;20163;-89
2022/10/15 01:02:29;;;;;;;25.00;15.77;;;16.30;99.90;;;;;;5052586;28;20719;-78
2022/10/15 01:04:55;;;;;;;20.80;15.52;;;16.20;99.90;;;;;;5052226;28;20202;-78
2022/10/15 01:07:20;;;;;;;24.05;16.80;;;16.30;99.90;;;;;;5052154;28;20220;-78
2022/10/15 01:09:46;;;;;;;23.25;15.68;;;16.20;99.90;;;;;;5052441;28;20163;-78
2022/10/15 01:12:47;;;;;;;21.63;16.42;;;16.30;99.90;;;;;;5052286;28;20175;-78
2022/10/15 01:15:21;;;;;;;19.33;16.40;;;16.40;99.90;;;;;;5057294;28;20270;-78
2022/10/15 01:17:52;;;;;;;18.95;15.75;;;16.50;99.90;;;;;;5056705;28;20217;-90
2022/10/15 01:20:37;;;;;;;27.05;16.25;;;16.40;99.90;;;;;;5051395;28;20177;-78
2022/10/15 01:23:40;;;;;;;16.17;14.63;;;16.30;99.90;;;;;;5052188;28;20194;-78
2022/10/15 01:26:39;;;;;;;15.95;14.30;;;16.30;99.90;;;;;;5051994;28;20191;-78
2022/10/15 01:29:41;;;;;;;20.48;15.85;;;16.40;99.90;;;;;;5052120;28;20175;-78
2022/10/15 01:32:18;;;;;;;19.95;15.00;;;16.50;99.90;;;;;;5051857;28;20167;-78
2022/10/15 01:34:53;;;;;;;16.08;13.82;;;16.30;99.90;;;;;;5052153;28;20660;-78
2022/10/15 01:37:35;;;;;;;16.45;14.20;;;16.20;99.90;;;;;;5052342;28;20627;-78
2022/10/15 01:40:28;;;;;;;19.98;16.48;;;16.40;99.90;;;;;;5052275;28;20580;-78
2022/10/15 01:43:18;;;;;;;17.35;14.95;;;16.40;99.90;;;;;;5046435;28;20187;-78
2022/10/15 01:45:53;;;;;;;18.95;16.33;;;16.40;99.90;;;;;;5047254;28;20711;-78
2022/10/15 01:48:19;;;;;;;18.88;15.68;;;16.10;99.90;;;;;;5056238;28;20170;-78
2022/10/15 01:50:48;;;;;;;22.77;16.20;;;16.00;99.90;;;;;;5055895;28;20195;-78
2022/10/15 01:53:18;;;;;;;18.17;14.98;;;15.80;99.90;;;;;;5055958;28;20325;-78
2022/10/15 01:55:44;;;;;;;17.27;15.05;;;15.80;99.90;;;;;;5055922;28;20222;-78
2022/10/15 01:58:11;;;;;;;18.98;15.38;;;15.90;99.90;;;;;;5055688;28;20668;-82
2022/10/15 02:00:40;;;;;;;21.08;15.25;;;16.00;99.90;;;;;;5055620;28;20285;-78
2022/10/15 02:03:05;;;;;;;24.92;15.93;;;16.10;99.90;;;;;;5055484;28;20178;-78
2022/10/15 02:05:44;;;;;;;21.40;16.38;;;16.10;99.90;;;;;;5055248;28;20183;-79
2022/10/15 02:08:15;;;;;;;30.27;18.83;;;16.00;99.90;;;;;;5055638;28;20209;-78
2022/10/15 02:11:11;;;;;;;27.15;17.83;;;15.90;99.90;;;;;;5055445;28;20177;-78
2022/10/15 02:13:52;;;;;;;27.05;18.92;;;15.90;99.90;;;;;;5056110;28;20172;-78
2022/10/15 02:16:20;;;;;;;35.30;19.60;;;16.00;99.90;;;;;;5055223;28;20644;-80
2022/10/15 02:19:05;;;;;;;27.15;19.08;;;16.00;99.90;;;;;;5057394;28;20283;-79
2022/10/15 02:21:37;;;;;;;27.92;18.65;;;16.10;99.90;;;;;;5057483;28;20637;-78
2022/10/15 02:24:11;;;;;;;25.48;18.48;;;16.00;99.90;;;;;;5058441;28;20849;-88
2022/10/15 02:26:39;;;;;;;29.60;19.13;;;16.00;99.90;;;;;;5059982;28;20588;-78
2022/10/15 02:29:09;;;;;;;27.85;19.92;;;15.90;99.90;;;;;;5059259;28;20187;-78
2022/10/15 02:31:38;;;;;;;27.83;19.27;;;15.90;99.90;;;;;;5059581;28;20174;-78
2022/10/15 02:34:10;;;;;;;30.98;19.55;;;15.70;99.90;;;;;;5059549;28;20696;-78
2022/10/15 02:36:38;;;;;;;35.75;19.50;;;15.60;99.90;;;;;;5059219;28;20513;-78
2022/10/15 02:39:08;;;;;;;32.92;19.55;;;15.60;99.90;;;;;;5061072;28;20238;-79
2022/10/15 02:41:34;;;;;;;26.80;17.25;;;15.60;99.90;;;;;;5058653;28;20170;-79
2022/10/15 02:44:02;;;;;;;27.10;19.08;;;15.70;99.90;;;;;;5057876;28;20171;-79
2022/10/15 02:46:27;;;;;;;29.52;18.83;;;15.50;99.90;;;;;;5057596;28;20687;-79
2022/10/15 02:48:54;;;;;;;32.13;20.05;;;15.50;99.90;;;;;;5057097;28;20261;-78
2022/10/15 02:51:20;;;;;;;33.83;20.85;;;15.60;99.90;;;;;;5056760;28;20163;-77
2022/10/15 02:53:45;;;;;;;27.35;18.33;;;15.60;99.90;;;;;;5057340;28;20175;-78
2022/10/15 02:56:11;;;;;;;26.70;17.63;;;15.40;99.90;;;;;;5056891;28;20179;-78
2022/10/15 02:58:37;;;;;;;28.58;17.88;;;15.60;99.90;;;;;;5057306;28;20230;-78
2022/10/15 03:01:03;;;;;;;26.65;18.52;;;15.60;99.90;;;;;;5056643;28;20247;-77
2022/10/15 03:03:28;;;;;;;30.40;18.98;;;15.80;99.90;;;;;;5056790;28;20563;-79
2022/10/15 03:05:54;;;;;;;28.30;17.95;;;15.60;99.90;;;;;;5056944;28;20177;-77
2022/10/15 03:08:20;;;;;;;27.08;17.95;;;15.60;99.90;;;;;;5056790;28;20171;-78
2022/10/15 03:10:45;;;;;;;20.35;15.85;;;15.50;99.90;;;;;;5056627;28;20199;-78
2022/10/15 03:13:11;;;;;;;25.55;16.52;;;15.60;99.90;;;;;;5056285;28;20203;-77
2022/10/15 03:15:37;;;;;;;25.13;17.65;;;15.50;99.90;;;;;;5055339;28;20194;-77
2022/10/15 03:18:03;;;;;;;26.58;17.55;;;15.50;99.90;;;;;;5055166;28;20222;-81
2022/10/15 03:20:29;;;;;;;26.20;17.00;;;15.60;99.90;;;;;;5054777;28;20198;-77
2022/10/15 03:22:54;;;;;;;17.38;15.38;;;15.70;99.90;;;;;;5054717;28;20537;-82
2022/10/15 03:25:20;;;;;;;20.52;14.95;;;15.80;99.90;;;;;;5058527;28;20180;-81
2022/10/15 03:27:46;;;;;;;19.30;14.98;;;15.90;99.90;;;;;;5057689;28;20172;-78
2022/10/15 03:30:12;;;;;;;18.80;14.32;;;15.70;99.90;;;;;;5057570;28;20645;-79
2022/10/15 03:32:38;;;;;;;22.38;15.23;;;15.70;99.90;;;;;;5056694;28;20174;-78
2022/10/15 03:35:04;;;;;;;19.50;14.00;;;15.70;99.90;;;;;;5055973;28;20248;-79
2022/10/15 03:37:30;;;;;;;15.43;13.80;;;15.60;99.90;;;;;;5054736;28;20206;-78
2022/10/15 03:39:55;;;;;;;19.83;13.77;;;15.40;99.90;;;;;;5054280;28;20171;-78
2022/10/15 03:42:21;;;;;;;17.42;14.85;;;15.40;99.90;;;;;;5054010;28;20250;-78
2022/10/15 03:44:47;;;;;;;21.48;14.30;;;15.50;99.90;;;;;;5056047;28;20181;-79
2022/10/15 03:47:12;;;;;;;21.92;14.65;;;15.50;99.90;;;;;;5055724;28;20519;-78
2022/10/15 03:49:39;;;;;;;20.27;15.90;;;15.60;99.90;;;;;;5056259;28;20175;-79
2022/10/15 03:52:05;;;;;;;20.70;15.57;;;15.80;99.90;;;;;;5062582;28;20174;-80
2022/10/15 03:54:30;;;;;;;25.45;17.05;;;15.80;99.90;;;;;;5061023;28;20162;-78
2022/10/15 03:56:56;;;;;;;23.15;16.10;;;15.80;99.90;;;;;;5056680;28;20183;-77
2022/10/15 03:59:21;;;;;;;21.52;16.20;;;15.70;99.90;;;;;;5056570;28;20202;-79
2022/10/15 04:01:47;;;;;;;21.08;16.38;;;15.60;99.90;;;;;;5056087;28;20159;-79
2022/10/15 04:04:13;;;;;;;21.33;17.45;;;15.60;99.90;;;;;;5055511;28;20171;-79
2022/10/15 04:06:39;;;;;;;23.27;17.50;;;15.60;99.90;;;;;;5055806;28;20192;-79
2022/10/15 04:09:05;;;;;;;18.98;14.93;;;15.60;99.90;;;;;;5056514;28;20167;-79
2022/10/15 04:11:30;;;;;;;23.27;16.70;;;15.50;99.90;;;;;;5057023;28;20712;-79
2022/10/15 04:13:56;;;;;;;18.02;14.82;;;15.30;99.90;;;;;;5057202;28;20171;-78
2022/10/15 04:16:23;;;;;;;18.52;14.52;;;15.30;99.90;;;;;;5057056;28;20225;-79
2022/10/15 04:18:49;;;;;;;19.58;14.73;;;15.30;99.90;;;;;;5055587;28;20210;-79
2022/10/15 04:21:14;;;;;;;25.23;14.18;;;15.20;99.90;;;;;;5055776;28;20924;-79
2022/10/15 04:23:40;;;;;;;17.95;13.52;;;15.10;99.90;;;;;;5055125;28;20171;-79
2022/10/15 04:26:06;;;;;;;18.48;13.70;;;15.10;99.90;;;;;;5054283;28;20190;-81
2022/10/15 04:28:32;;;;;;;16.98;13.88;;;15.10;99.90;;;;;;5054931;28;20159;-79
2022/10/15 04:30:59;;;;;;;14.25;12.32;;;15.00;99.90;;;;;;5054641;28;20254;-81
2022/10/15 04:33:25;;;;;;;19.55;14.57;;;15.00;99.90;;;;;;5054794;28;20246;-77
2022/10/15 04:36:02;;;;;;;17.35;12.77;;;15.00;99.90;;;;;;5054462;28;20179;-77
2022/10/15 04:38:28;;;;;;;17.45;12.95;;;15.00;99.90;;;;;;5054132;28;20198;-78
2022/10/15 04:41:03;;;;;;;19.38;13.48;;;14.90;99.90;;;;;;5055776;28;20492;-78
2022/10/15 04:43:29;;;;;;;16.52;12.07;;;14.80;99.90;;;;;;5054900;28;20625;-78
2022/10/15 04:45:56;;;;;;;15.00;12.07;;;14.80;99.90;;;;;;5053171;28;20199;-78
2022/10/15 04:48:21;;;;;;;12.82;11.20;;;14.90;99.90;;;;;;5054959;28;20162;-78
2022/10/15 04:50:47;;;;;;;12.48;11.27;;;14.80;99.90;;;;;;5054239;28;20230;-78
2022/10/15 04:53:12;;;;;;;13.07;10.82;;;14.80;99.90;;;;;;5054798;28;20163;-78
2022/10/15 04:55:38;;;;;;;14.57;11.93;;;14.90;99.90;;;;;;5054290;28;20274;-78
2022/10/15 04:58:04;;;;;;;11.48;10.38;;;14.90;99.90;;;;;;5056567;28;20665;-78
2022/10/15 05:00:29;;;;;;;12.52;10.48;;;15.10;99.90;;;;;;5055639;28;20242;-79
2022/10/15 05:02:55;;;;;;;14.80;11.23;;;15.20;99.90;;;;;;5055612;28;20171;-88
2022/10/15 05:05:20;;;;;;;11.63;10.50;;;15.30;99.90;;;;;;5055343;28;20207;-78
2022/10/15 05:07:46;;;;;;;14.25;10.77;;;15.20;99.90;;;;;;5055124;28;20167;-78
2022/10/15 05:10:12;;;;;;;11.88;10.13;;;15.30;99.90;;;;;;5054730;28;20171;-79
2022/10/15 05:12:37;;;;;;;14.80;9.68;;;15.20;99.90;;;;;;5055697;28;20550;-78
2022/10/15 05:15:03;;;;;;;13.63;9.45;;;15.20;99.90;;;;;;5053785;28;20258;-78
2022/10/15 05:17:29;;;;;;;10.90;9.05;;;15.30;99.90;;;;;;5053372;28;20252;-78
2022/10/15 05:19:55;;;;;;;10.93;9.48;;;15.50;99.90;;;;;;5055075;28;20178;-78
2022/10/15 05:22:20;;;;;;;9.48;8.63;;;15.50;99.90;;;;;;5056963;28;20167;-78
2022/10/15 05:24:46;;;;;;;11.50;8.68;;;15.40;99.90;;;;;;5056853;28;20171;-79
2022/10/15 05:27:11;;;;;;;9.07;7.55;;;15.30;99.90;;;;;;5055107;28;20201;-78
2022/10/15 05:29:38;;;;;;;9.55;8.32;;;15.40;99.90;;;;;;5056972;28;20167;-78
2022/10/15 05:32:04;;;;;;;10.93;9.00;;;15.30;99.90;;;;;;5056880;28;20160;-79
2022/10/15 05:34:30;;;;;;;11.63;7.88;;;15.30;99.90;;;;;;5056493;28;20228;-78
2022/10/15 05:36:55;;;;;;;8.27;6.68;;;15.40;99.90;;;;;;5056453;28;20218;-79
2022/10/15 05:39:21;;;;;;;8.95;7.97;;;15.40;99.90;;;;;;5056270;28;20289;-79
2022/10/15 05:41:48;;;;;;;9.18;8.10;;;15.50;99.90;;;;;;5056664;28;20171;-83
2022/10/15 05:44:14;;;;;;;7.72;6.97;;;15.50;99.90;;;;;;5057172;28;20216;-78
2022/10/15 05:46:39;;;;;;;9.75;7.95;;;15.40;99.90;;;;;;5056906;28;20269;-79
2022/10/15 05:49:05;;;;;;;9.77;7.80;;;15.40;99.90;;;;;;5056870;28;20162;-78
2022/10/15 05:51:31;;;;;;;9.02;8.23;;;15.40;99.90;;;;;;5056881;28;20175;-80
2022/10/15 05:53:57;;;;;;;8.38;7.55;;;15.30;99.90;;;;;;5056539;28;20173;-79
2022/10/15 05:56:24;;;;;;;9.10;7.32;;;15.30;99.90;;;;;;5055911;28;20202;-79
2022/10/15 05:58:50;;;;;;;7.60;6.65;;;15.30;99.90;;;;;;5056007;28;20257;-78
2022/10/15 06:01:16;;;;;;;8.52;6.50;;;15.30;99.90;;;;;;5055801;28;20577;-79
2022/10/15 06:03:43;;;;;;;6.80;6.03;;;15.20;99.90;;;;;;5055831;28;20254;-78
2022/10/15 06:06:19;;;;;;;7.93;7.05;;;15.20;99.90;;;;;;5055796;28;20185;-79
2022/10/15 06:08:46;;;;;;;7.10;6.30;;;15.30;99.90;;;;;;5055545;28;20171;-80
2022/10/15 06:11:11;;;;;;;6.70;5.95;;;15.40;99.90;;;;;;5055224;28;20671;-79
2022/10/15 06:13:40;;;;;;;6.55;5.38;;;15.50;99.90;;;;;;5055785;28;20172;-79
2022/10/15 06:16:07;;;;;;;10.07;5.95;;;15.50;99.90;;;;;;5056557;28;20179;-80
2022/10/15 06:18:32;;;;;;;9.13;6.25;;;15.40;99.90;;;;;;5054695;28;20210;-81
2022/10/15 06:20:58;;;;;;;6.13;5.50;;;15.60;99.90;;;;;;5055680;28;20682;-81
2022/10/15 06:23:24;;;;;;;6.43;5.68;;;15.60;99.90;;;;;;5057289;28;20675;-78
2022/10/15 06:25:50;;;;;;;5.53;4.78;;;15.70;99.90;;;;;;5058387;28;20252;-78
2022/10/15 06:28:15;;;;;;;5.63;4.85;;;15.60;99.90;;;;;;5063671;28;20170;-78
2022/10/15 06:30:42;;;;;;;6.72;4.75;;;15.60;99.90;;;;;;5061421;28;20171;-78
2022/10/15 06:33:08;;;;;;;6.68;4.85;;;15.50;99.90;;;;;;5060673;28;20251;-78
2022/10/15 06:35:34;;;;;;;5.85;5.00;;;15.50;99.90;;;;;;5057341;28;20199;-78
2022/10/15 06:38:01;;;;;;;7.38;5.15;;;15.40;99.90;;;;;;5058000;28;20697;-78
2022/10/15 06:40:27;;;;;;;5.35;4.57;;;15.50;99.90;;;;;;5060795;28;20250;-77
2022/10/15 06:42:53;;;;;;;8.10;4.75;;;15.60;99.90;;;;;;5062095;28;20187;-78
2022/10/15 06:45:18;;;;;;;5.47;4.82;;;15.60;99.90;;;;;;5060125;28;20191;-77
2022/10/15 06:47:44;;;;;;;5.85;5.25;;;15.60;99.90;;;;;;5056422;28;20206;-80
2022/10/15 06:50:10;;;;;;;5.18;4.25;;;15.70;99.90;;;;;;5055387;28;20171;-79
2022/10/15 06:52:36;;;;;;;5.53;4.72;;;15.80;99.90;;;;;;5055299;28;20166;-78
2022/10/15 06:55:03;;;;;;;5.07;4.68;;;16.00;99.90;;;;;;5054550;28;20167;-79
2022/10/15 06:57:29;;;;;;;8.90;5.22;;;16.00;99.90;;;;;;5055704;28;20633;-79
2022/10/15 06:59:55;;;;;;;6.47;4.72;;;16.00;99.90;;;;;;5056254;28;20182;-85
2022/10/15 07:02:21;;;;;;;6.00;4.25;;;16.10;99.90;;;;;;5056356;28;20564;-79
2022/10/15 07:04:47;;;;;;;5.20;4.70;;;16.20;99.90;;;;;;5055683;28;20238;-78
2022/10/15 07:07:13;;;;;;;5.10;4.68;;;16.10;99.90;;;;;;5055373;28;20180;-79
2022/10/15 07:09:39;;;;;;;6.38;4.32;;;16.10;99.90;;;;;;5055182;28;20641;-79
2022/10/15 07:12:06;;;;;;;4.75;4.35;;;16.20;99.90;;;;;;5053697;28;20278;-78
2022/10/15 07:14:32;;;;;;;5.93;5.22;;;16.20;99.90;;;;;;5055806;28;20229;-79
2022/10/15 07:16:58;;;;;;;9.35;4.57;;;16.30;99.90;;;;;;5054313;28;20183;-79
2022/10/15 07:19:24;;;;;;;11.10;7.68;;;16.20;99.90;;;;;;5053913;28;20517;-78
2022/10/15 07:21:50;;;;;;;6.32;5.70;;;16.40;99.90;;;;;;5052960;28;20167;-84
2022/10/15 07:24:15;;;;;;;8.52;5.03;;;16.40;99.90;;;;;;5054247;28;20175;-79
2022/10/15 07:26:41;;;;;;;6.90;6.28;;;16.40;99.90;;;;;;5054653;28;20666;-79
2022/10/15 07:29:07;;;;;;;9.88;4.70;;;16.50;99.90;;;;;;5054954;28;20225;-81
2022/10/15 07:31:33;;;;;;;4.38;3.97;;;16.30;99.90;;;;;;5054546;28;20224;-79
2022/10/15 07:33:58;;;;;;;4.65;4.10;;;16.50;99.90;;;;;;5054776;28;20185;-79
2022/10/15 07:36:25;;;;;;;8.65;4.25;;;16.60;99.90;;;;;;5054202;28;20673;-80
2022/10/15 07:38:50;;;;;;;5.38;3.90;;;16.70;99.90;;;;;;5054812;28;20206;-81
2022/10/15 07:41:16;;;;;;;3.58;3.28;;;16.70;99.90;;;;;;5054367;28;20164;-81
2022/10/15 07:43:42;;;;;;;6.47;3.63;;;16.50;99.90;;;;;;5053568;28;20629;-88
2022/10/15 07:46:08;;;;;;;3.60;3.30;;;16.60;99.90;;;;;;5053001;28;20678;-79
2022/10/15 07:48:34;;;;;;;2.95;2.60;;;16.60;99.90;;;;;;5053179;28;20174;-83
2022/10/15 07:51:02;;;;;;;3.50;3.20;;;16.50;99.90;;;;;;5053907;28;20625;-79
2022/10/15 07:53:29;;;;;;;3.53;3.22;;;16.30;99.90;;;;;;5053730;28;20174;-79
2022/10/15 07:56:06;;;;;;;6.15;3.20;;;16.30;99.90;;;;;;5053498;28;20197;-79
2022/10/15 07:58:33;;;;;;;6.10;3.53;;;16.40;99.90;;;;;;5053360;28;20580;-78
2022/10/15 08:01:04;;;;;;;4.28;3.30;;;16.60;99.90;;;;;;5051564;28;20191;-79
2022/10/15 08:03:30;;;;;;;4.15;3.40;;;16.60;99.90;;;;;;5052907;28;20190;-79
2022/10/15 08:05:58;;;;;;;3.55;3.25;;;16.60;99.90;;;;;;5053655;28;20658;-79
2022/10/15 08:08:23;;;;;;;6.70;2.67;;;16.50;99.90;;;;;;5052248;28;20254;-82
2022/10/15 08:10:49;;;;;;;6.03;2.40;;;16.60;99.90;;;;;;5052664;28;20216;-85
2022/10/15 08:13:14;;;;;;;3.60;2.50;;;16.50;99.90;;;;;;5054251;28;20262;-82
2022/10/15 08:15:41;;;;;;;2.60;2.33;;;16.60;99.90;;;;;;5053124;28;20810;-78
2022/10/15 08:18:08;;;;;;;4.90;3.33;;;16.50;99.90;;;;;;5052222;28;20225;-78
2022/10/15 08:20:35;;;;;;;3.90;3.00;;;16.50;99.90;;;;;;5053829;28;20156;-78
2022/10/15 08:23:01;;;;;;;2.47;2.00;;;16.60;99.90;;;;;;5053192;28;20162;-78
2022/10/15 08:25:27;;;;;;;2.97;2.28;;;16.60;99.90;;;;;;5052780;28;20260;-79
2022/10/15 08:27:53;;;;;;;4.35;2.10;;;16.60;99.90;;;;;;5053365;28;20204;-78
2022/10/15 08:30:19;;;;;;;10.73;1.77;;;16.80;99.90;;;;;;5052855;28;20175;-78
2022/10/15 08:32:44;;;;;;;2.83;1.70;;;16.80;99.90;;;;;;5053069;28;20222;-81
2022/10/15 08:35:10;;;;;;;2.78;2.50;;;16.90;99.90;;;;;;5053039;28;20719;-80
2022/10/15 08:37:36;;;;;;;3.30;3.00;;;16.80;99.90;;;;;;5056007;28;20278;-79
2022/10/15 08:40:03;;;;;;;2.03;1.80;;;16.90;99.90;;;;;;5053471;28;20207;-79
2022/10/15 08:42:39;;;;;;;2.38;1.85;;;17.10;99.90;;;;;;5054331;28;20241;-78
2022/10/15 08:45:18;;;;;;;3.28;2.10;;;17.10;99.90;;;;;;5052942;28;20213;-79
2022/10/15 08:48:00;;;;;;;1.40;1.30;;;17.10;99.90;;;;;;5053489;28;20637;-78
2022/10/15 08:50:55;;;;;;;1.38;1.20;;;17.40;99.90;;;;;;5053393;28;20163;-80
2022/10/15 08:53:23;;;;;;;1.73;1.60;;;17.60;99.90;;;;;;5043881;28;20182;-79
2022/10/15 08:55:53;;;;;;;1.48;1.10;;;17.60;99.90;;;;;;5052517;28;20198;-79
2022/10/15 08:58:24;;;;;;;1.20;1.10;;;17.60;99.90;;;;;;5054225;28;20238;-78
2022/10/15 09:01:03;;;;;;;1.70;1.50;;;17.60;99.90;;;;;;5056690;28;20184;-78
2022/10/15 09:04:03;;;;;;;1.13;0.90;;;17.70;99.90;;;;;;5059697;28;20167;-78
2022/10/15 09:06:37;;;;;;;1.05;0.95;;;17.60;99.90;;;;;;5067968;28;20183;-78
2022/10/15 09:09:24;;;;;;;2.10;0.98;;;17.70;99.90;;;;;;5055656;28;20195;-79
2022/10/15 09:12:02;;;;;;;3.70;1.40;;;17.90;99.90;;;;;;5054193;28;20206;-78
2022/10/15 09:14:33;;;;;;;1.63;1.50;;;17.90;99.90;;;;;;5053406;28;20199;-84
2022/10/15 09:17:03;;;;;;;4.25;1.90;;;17.70;99.90;;;;;;5051845;28;20535;-79
2022/10/15 09:19:30;;;;;;;1.98;1.08;;;17.80;99.90;;;;;;5052497;28;20209;-79
2022/10/15 09:21:59;;;;;;;2.22;1.55;;;17.90;99.90;;;;;;5052275;28;20258;-79
2022/10/15 09:24:28;;;;;;;3.97;1.02;;;17.90;99.90;;;;;;5052192;28;20249;-79
2022/10/15 09:27:33;;;;;;;2.83;1.23;;;17.70;99.90;;;;;;5051657;28;20214;-79
2022/10/15 09:30:20;;;;;;;1.13;0.77;;;17.60;99.90;;;;;;5046286;28;20175;-78
2022/10/15 09:33:19;;;;;;;1.15;0.90;;;17.70;99.90;;;;;;5050103;28;20175;-80
2022/10/15 09:35:51;;;;;;;1.63;1.20;;;17.90;99.90;;;;;;5049694;28;20681;-79
2022/10/15 09:38:44;;;;;;;2.28;1.65;;;18.00;99.90;;;;;;5051417;28;20199;-82
2022/10/15 09:41:16;;;;;;;1.60;1.50;;;18.50;99.90;;;;;;5039522;28;20659;-79
2022/10/15 09:43:45;;;;;;;2.33;1.90;;;18.80;99.90;;;;;;5031841;28;20200;-79
2022/10/15 09:46:11;;;;;;;3.80;3.25;;;19.00;99.90;;;;;;5031537;28;20198;-79
2022/10/15 09:48:49;;;;;;;1.27;1.10;;;19.10;99.90;;;;;;5031926;28;20172;-80
2022/10/15 09:51:35;;;;;;;0.90;0.85;;;19.20;99.90;;;;;;5031220;28;20213;-79
2022/10/15 09:54:38;;;;;;;0.77;0.70;;;19.30;99.90;;;;;;5042922;28;20195;-84
2022/10/15 09:57:08;;;;;;;1.73;0.95;;;19.30;99.90;;;;;;5027609;28;20214;-80
2022/10/15 09:59:34;;;;;;;0.80;0.70;;;19.30;99.90;;;;;;5047776;28;20217;-79
2022/10/15 10:02:17;;;;;;;1.48;1.10;;;18.90;99.90;;;;;;5055773;28;20167;-81
2022/10/15 10:04:43;;;;;;;1.17;1.10;;;19.00;99.90;;;;;;5057615;28;20167;-79
2022/10/15 10:07:35;;;;;;;3.38;1.20;;;18.90;99.90;;;;;;5063455;28;20274;-79
2022/10/15 10:10:23;;;;;;;1.30;1.10;;;18.70;99.90;;;;;;5061454;28;20171;-79
2022/10/15 10:12:50;;;;;;;5.47;1.80;;;18.70;99.90;;;;;;5042564;28;20186;-78
2022/10/15 10:15:42;;;;;;;1.38;1.10;;;18.70;99.90;;;;;;5041371;28;20278;-78
2022/10/15 10:18:19;;;;;;;2.10;1.60;;;18.50;99.90;;;;;;5048095;28;20200;-78
2022/10/15 10:20:58;;;;;;;2.33;1.20;;;18.70;99.90;;;;;;5050490;28;20167;-85
2022/10/15 10:23:28;;;;;;;1.30;0.90;;;18.60;99.90;;;;;;5036634;28;20160;-78
2022/10/15 10:25:59;;;;;;;1.38;1.08;;;18.70;99.90;;;;;;5035330;28;20191;-78
2022/10/15 10:28:55;;;;;;;1.73;1.13;;;18.80;99.90;;;;;;5035088;28;20222;-78
2022/10/15 10:31:43;;;;;;;1.55;1.35;;;18.80;99.90;;;;;;5027207;28;20195;-82
2022/10/15 10:34:14;;;;;;;1.92;1.50;;;19.00;99.90;;;;;;5038916;28;20176;-79
2022/10/15 10:36:40;;;;;;;1.25;1.15;;;19.20;99.90;;;;;;5037484;28;20661;-79
2022/10/15 10:39:14;;;;;;;1.92;1.00;;;19.30;99.90;;;;;;5037553;28;20301;-78
2022/10/15 10:41:51;;;;;;;1.23;1.10;;;19.10;99.90;;;;;;5040389;28;20167;-79
2022/10/15 10:44:19;;;;;;;1.00;0.90;;;19.10;99.90;;;;;;5039296;28;20250;-79
2022/10/15 10:47:21;;;;;;;1.95;1.08;;;19.30;99.90;;;;;;5039657;28;20192;-78
2022/10/15 10:49:49;;;;;;;1.58;1.20;;;19.50;99.90;;;;;;5041062;28;20175;-85
2022/10/15 10:52:21;;;;;;;1.23;1.13;;;19.70;99.90;;;;;;5041557;28;20186;-80
2022/10/15 10:54:59;;;;;;;1.13;1.10;;;19.70;99.90;;;;;;5040799;28;20168;-88
2022/10/15 10:57:36;;;;;;;9.57;1.67;;;19.80;99.90;;;;;;5038306;28;20218;-79
2022/10/15 11:00:05;;;;;;;5.70;1.52;;;19.80;99.90;;;;;;5038135;28;20176;-79
2022/10/15 11:02:34;;;;;;;1.50;1.40;;;19.90;99.90;;;;;;5037867;28;20172;-78
2022/10/15 11:05:00;;;;;;;3.47;1.42;;;19.90;99.90;;;;;;5036294;28;20179;-77
2022/10/15 11:07:55;;;;;;;4.80;1.48;;;19.90;99.90;;;;;;5036368;28;20251;-78
2022/10/15 11:10:36;;;;;;;2.22;1.90;;;20.00;99.90;;;;;;5017134;28;20188;-79
2022/10/15 11:13:12;;;;;;;1.50;1.40;;;19.70;99.90;;;;;;5036901;28;20180;-83
2022/10/15 11:16:14;;;;;;;1.60;1.50;;;19.70;99.90;;;;;;5036505;28;20227;-79
2022/10/15 11:18:58;;;;;;;3.83;2.70;;;19.90;99.90;;;;;;5004469;28;20305;-77
2022/10/15 11:22:09;;;;;;;2.08;1.88;;;20.00;99.90;;;;;;5035615;28;20629;-78
2022/10/15 11:24:56;;;;;;;2.45;2.20;;;19.90;99.90;;;;;;5035481;28;20176;-78
2022/10/15 11:27:46;;;;;;;2.47;2.00;;;19.90;99.90;;;;;;5045885;28;20166;-87
2022/10/15 11:30:37;;;;;;;11.20;10.00;;;19.70;99.90;;;;;;5037118;28;20202;-79
2022/10/15 11:33:29;;;;;;;4.97;4.18;;;19.90;99.90;;;;;;5035859;28;20164;-79
2022/10/15 11:36:18;;;;;;;1.83;1.65;;;20.00;99.90;;;;;;5030783;28;20337;-79
2022/10/15 11:38:59;;;;;;;1.65;1.55;;;20.20;99.90;;;;;;5034631;28;20216;-79
2022/10/15 11:41:32;;;;;;;3.42;2.65;;;20.20;99.90;;;;;;5035656;28;20264;-79
2022/10/15 11:44:32;;;;;;;7.05;4.70;;;20.30;99.90;;;;;;5035369;28;20168;-80
2022/10/15 11:47:23;;;;;;;2.85;1.90;;;20.20;99.90;;;;;;4973401;28;20252;-80
2022/10/15 11:50:07;;;;;;;5.18;3.05;;;20.30;99.90;;;;;;5031601;28;20215;-79
2022/10/15 11:52:33;;;;;;;1.75;1.65;;;20.50;99.90;;;;;;5034063;28;20164;-89
2022/10/15 11:55:11;;;;;;;5.97;1.60;;;20.70;99.90;;;;;;5038062;28;20234;-86
2022/10/15 11:57:39;;;;;;;1.23;1.13;;;20.50;99.90;;;;;;5031691;28;20175;-82
2022/10/15 12:00:25;;;;;;;1.98;1.80;;;20.40;99.90;;;;;;5032634;28;20183;-81
2022/10/15 12:02:54;;;;;;;4.22;0.85;;;20.40;99.90;;;;;;5032038;28;20172;-81
2022/10/15 12:05:43;;;;;;;1.48;1.38;;;20.30;99.90;;;;;;5031989;28;20697;-80
2022/10/15 12:08:11;;;;;;;1.02;0.80;;;20.30;99.90;;;;;;5033260;28;20250;-86
2022/10/15 12:11:21;;;;;;;0.88;0.88;;;20.20;99.90;;;;;;5032976;28;20251;-80
2022/10/15 12:13:59;;;;;;;0.70;0.70;;;20.20;99.90;;;;;;5019684;28;20231;-80
2022/10/15 12:16:34;;;;;;;2.03;1.00;;;20.20;99.90;;;;;;5031578;28;20211;-80
2022/10/15 12:19:20;;;;;;;1.60;1.50;;;19.90;99.90;;;;;;5032665;28;20211;-81
2022/10/15 12:21:55;;;;;;;6.25;4.93;;;19.60;99.90;;;;;;5031643;28;20269;-79
2022/10/15 12:24:50;;;;;;;3.92;1.40;;;19.10;99.90;;;;;;5033128;28;20273;-77
2022/10/15 12:27:16;;;;;;;1.75;1.10;;;18.60;99.90;;;;;;5031362;28;20634;-79
2022/10/15 12:29:41;;;;;;;1.60;1.02;;;18.40;99.90;;;;;;5032141;28;20175;-79
2022/10/15 12:32:28;;;;;;;1.23;1.13;;;18.40;99.90;;;;;;5032625;28;20500;-84
2022/10/15 12:35:25;;;;;;;2.88;1.10;;;18.50;99.90;;;;;;5030900;28;20637;-79
2022/10/15 12:37:51;;;;;;;1.25;1.13;;;18.50;99.90;;;;;;5030700;28;20215;-78
2022/10/15 12:40:19;;;;;;;1.65;1.08;;;18.50;99.90;;;;;;5032297;28;20175;-78
2022/10/15 12:42:49;;;;;;;0.70;0.70;;;18.50;99.90;;;;;;5032876;28;20302;-79
2022/10/15 12:45:34;;;;;;;0.60;0.60;;;18.40;99.90;;;;;;5032142;28;20195;-79
2022/10/15 12:48:02;;;;;;;1.48;0.70;;;18.40;99.90;;;;;;5031249;28;20172;-79
2022/10/15 12:50:30;;;;;;;6.05;0.70;;;18.60;99.90;;;;;;5032116;28;20684;-79
2022/10/15 12:53:06;;;;;;;0.82;0.60;;;18.70;99.90;;;;;;5032789;28;20164;-80
2022/10/15 12:55:38;;;;;;;0.70;0.60;;;18.70;99.90;;;;;;5030555;28;20199;-78
2022/10/15 12:58:28;;;;;;;1.42;0.80;;;18.60;99.90;;;;;;5032037;28;20203;-79
2022/10/15 13:00:54;;;;;;;2.38;1.10;;;18.40;99.90;;;;;;5030613;28;20199;-79